Time;durP1;ratioP1;P1;durP2;ratioP2;P2;SDS_P1;SDS_P2;PMS_P1;PMS_P2;Temp;Humidity;BMP_temperature;BMP_pressure;BME280_temperature;BME280_humidity;BME280_pressure;Samples;Min_cycle;Max_cycle;Signal;HPM_P1;HPM_P2
2024/03/23 00:00:04;;;;;;;3.92;1.10;;;5.20;99.90;;;;;;5066282;28;20035;-67
2024/03/23 00:02:30;;;;;;;3.63;1.50;;;5.20;99.90;;;;;;5065213;28;20028;-67
2024/03/23 00:04:57;;;;;;;2.22;0.77;;;5.20;99.90;;;;;;5064048;28;20055;-67
2024/03/23 00:07:23;;;;;;;3.00;1.20;;;5.20;99.90;;;;;;5057934;28;20477;-68
2024/03/23 00:09:50;;;;;;;2.78;1.10;;;5.10;99.90;;;;;;5050540;28;20036;-67
2024/03/23 00:12:16;;;;;;;2.72;1.45;;;5.10;99.90;;;;;;5056121;28;20042;-67
2024/03/23 00:14:43;;;;;;;8.82;1.65;;;5.10;99.90;;;;;;5062213;28;20037;-67
2024/03/23 00:17:11;;;;;;;2.05;1.00;;;5.10;99.90;;;;;;5065817;28;20037;-67
2024/03/23 00:19:37;;;;;;;1.50;0.95;;;5.10;99.90;;;;;;5060187;28;20024;-68
2024/03/23 00:22:03;;;;;;;5.28;1.33;;;5.10;99.90;;;;;;5065097;28;20035;-67
2024/03/23 00:24:30;;;;;;;4.95;1.23;;;5.10;99.90;;;;;;5057630;28;20049;-67
2024/03/23 00:26:57;;;;;;;3.40;1.23;;;5.10;99.90;;;;;;5063248;28;20334;-67
2024/03/23 00:29:23;;;;;;;2.13;1.00;;;5.00;99.90;;;;;;5061083;28;20033;-67
2024/03/23 00:31:50;;;;;;;4.20;1.73;;;5.00;99.90;;;;;;5065329;28;20582;-68
2024/03/23 00:34:16;;;;;;;2.15;1.10;;;5.00;99.90;;;;;;5063437;28;20051;-68
2024/03/23 00:36:42;;;;;;;3.17;1.50;;;5.00;99.90;;;;;;5065912;28;20390;-67
2024/03/23 00:39:09;;;;;;;6.05;1.42;;;5.00;99.90;;;;;;5063888;28;20055;-68
2024/03/23 00:41:35;;;;;;;2.85;0.93;;;5.00;99.90;;;;;;5054205;28;20037;-68
2024/03/23 00:44:02;;;;;;;1.58;0.98;;;5.00;99.90;;;;;;5062661;28;20048;-68
2024/03/23 00:46:28;;;;;;;5.38;1.27;;;5.00;99.90;;;;;;5064341;28;20048;-67
2024/03/23 00:48:55;;;;;;;4.07;1.45;;;4.90;99.90;;;;;;5064870;28;20481;-68
2024/03/23 00:51:22;;;;;;;3.42;1.10;;;5.00;99.90;;;;;;5064667;28;20429;-68
2024/03/23 00:53:47;;;;;;;3.63;1.60;;;4.90;99.90;;;;;;5062845;28;20024;-68
2024/03/23 00:56:13;;;;;;;8.00;1.95;;;4.90;99.90;;;;;;5064519;28;20139;-68
2024/03/23 00:58:38;;;;;;;2.13;1.00;;;4.90;99.90;;;;;;5062410;28;20033;-67
2024/03/23 01:01:04;;;;;;;2.22;1.13;;;4.90;99.90;;;;;;5063983;28;20087;-68
2024/03/23 01:03:30;;;;;;;5.40;1.52;;;4.80;99.90;;;;;;5063352;28;20357;-68
2024/03/23 01:06:01;;;;;;;3.95;1.45;;;4.90;99.90;;;;;;5061696;28;20035;-68
2024/03/23 01:08:27;;;;;;;3.78;1.30;;;4.80;99.90;;;;;;5063790;28;20064;-67
2024/03/23 01:11:02;;;;;;;2.90;1.35;;;4.80;99.90;;;;;;5060909;28;20433;-68
2024/03/23 01:13:28;;;;;;;4.53;1.25;;;4.80;99.90;;;;;;5053832;28;20115;-67
2024/03/23 01:15:55;;;;;;;6.68;1.52;;;4.80;99.90;;;;;;5059602;28;20489;-67
2024/03/23 01:18:21;;;;;;;2.95;1.27;;;4.80;99.90;;;;;;5065039;28;20105;-67
2024/03/23 01:20:48;;;;;;;2.80;1.40;;;4.80;99.90;;;;;;5064909;28;20036;-67
2024/03/23 01:23:13;;;;;;;3.63;1.52;;;4.80;99.90;;;;;;5062975;28;20036;-68
2024/03/23 01:25:39;;;;;;;2.67;1.13;;;4.80;99.90;;;;;;5063338;28;20091;-68
2024/03/23 01:28:06;;;;;;;5.88;1.10;;;4.70;99.90;;;;;;5063821;28;20346;-67
2024/03/23 01:30:32;;;;;;;2.63;1.38;;;4.70;99.90;;;;;;5060361;28;20166;-68
2024/03/23 01:32:57;;;;;;;3.50;1.15;;;4.60;99.90;;;;;;5062853;28;20064;-67
2024/03/23 01:35:23;;;;;;;2.03;0.98;;;4.60;99.90;;;;;;5062167;28;20085;-68
2024/03/23 01:37:48;;;;;;;7.10;1.50;;;4.50;99.90;;;;;;5054134;28;20434;-68
2024/03/23 01:40:15;;;;;;;2.45;1.27;;;4.50;99.90;;;;;;5053175;28;20117;-67
2024/03/23 01:42:41;;;;;;;4.85;1.83;;;4.50;99.90;;;;;;5064909;28;20067;-67
2024/03/23 01:45:08;;;;;;;4.45;1.33;;;4.50;99.90;;;;;;5063873;28;20069;-66
2024/03/23 01:47:34;;;;;;;3.08;1.23;;;4.50;99.90;;;;;;5067750;28;20124;-67
2024/03/23 01:50:00;;;;;;;3.83;1.27;;;4.50;99.90;;;;;;5064302;28;20530;-67
2024/03/23 01:52:30;;;;;;;3.53;1.60;;;4.50;99.90;;;;;;5067014;28;20028;-67
2024/03/23 01:54:55;;;;;;;2.22;1.20;;;4.50;99.90;;;;;;5065675;28;20029;-67
2024/03/23 01:57:21;;;;;;;7.60;1.50;;;4.50;99.90;;;;;;5065535;28;20079;-68
2024/03/23 01:59:47;;;;;;;3.90;1.30;;;4.40;99.90;;;;;;5063888;28;20086;-66
2024/03/23 02:02:13;;;;;;;3.15;1.48;;;4.40;99.90;;;;;;5067162;28;20060;-67
2024/03/23 02:04:38;;;;;;;3.63;1.63;;;4.40;99.90;;;;;;5063390;28;20084;-67
2024/03/23 02:07:07;;;;;;;5.68;1.15;;;4.30;99.90;;;;;;5067798;28;20477;-67
2024/03/23 02:09:33;;;;;;;3.10;1.70;;;4.30;99.90;;;;;;5073935;28;20110;-67
2024/03/23 02:11:58;;;;;;;3.63;1.00;;;4.30;99.90;;;;;;5065924;28;20481;-67
2024/03/23 02:14:24;;;;;;;3.25;1.20;;;;;;;;;;5066165;28;20064;-66
2024/03/23 02:16:50;;;;;;;3.40;1.50;;;;;;;;;;5069154;28;20029;-66
2024/03/23 02:19:16;;;;;;;6.97;1.30;;;4.40;99.90;;;;;;5064713;28;20021;-67
2024/03/23 02:21:41;;;;;;;5.07;1.63;;;4.30;99.90;;;;;;5066902;28;20104;-67
2024/03/23 02:24:07;;;;;;;2.10;1.00;;;4.30;99.90;;;;;;5058448;28;20065;-67
2024/03/23 02:26:32;;;;;;;2.17;1.20;;;4.30;99.90;;;;;;5061601;28;20464;-67
2024/03/23 02:28:57;;;;;;;3.95;1.40;;;4.30;99.90;;;;;;5066957;28;20058;-67
2024/03/23 02:31:23;;;;;;;6.85;1.13;;;4.30;99.90;;;;;;5065339;28;20140;-67
2024/03/23 02:33:48;;;;;;;2.78;1.42;;;4.20;99.90;;;;;;5065965;28;20435;-66
2024/03/23 02:36:14;;;;;;;5.35;1.23;;;4.20;99.90;;;;;;5062240;28;20115;-67
2024/03/23 02:38:39;;;;;;;4.15;1.60;;;4.30;99.90;;;;;;5063361;28;20044;-67
2024/03/23 02:41:05;;;;;;;3.25;1.25;;;4.30;99.90;;;;;;5061814;28;20112;-67
2024/03/23 02:43:31;;;;;;;2.97;1.42;;;4.30;99.90;;;;;;5061871;28;20117;-68
2024/03/23 02:45:56;;;;;;;6.38;1.48;;;4.20;99.90;;;;;;5062616;28;20449;-67
2024/03/23 02:48:22;;;;;;;3.65;1.52;;;4.20;99.90;;;;;;5060536;28;20089;-67
2024/03/23 02:50:48;;;;;;;3.88;1.05;;;4.20;99.90;;;;;;5065604;28;20101;-66
2024/03/23 02:53:13;;;;;;;4.80;1.45;;;4.20;99.90;;;;;;5063861;28;20069;-67
2024/03/23 02:55:39;;;;;;;4.75;1.08;;;4.20;99.90;;;;;;5063639;28;20041;-66
2024/03/23 02:58:04;;;;;;;4.10;1.90;;;4.20;99.90;;;;;;5066838;28;20040;-67
2024/03/23 03:00:30;;;;;;;5.68;1.30;;;4.20;99.90;;;;;;5063919;28;20456;-67
2024/03/23 03:02:56;;;;;;;3.60;1.50;;;4.10;99.90;;;;;;5066898;28;20415;-67
2024/03/23 03:05:21;;;;;;;4.25;1.40;;;4.10;99.90;;;;;;5058877;28;20044;-67
2024/03/23 03:07:46;;;;;;;1.65;1.35;;;4.10;99.90;;;;;;5066716;28;20060;-67
2024/03/23 03:10:12;;;;;;;1.75;0.93;;;4.10;99.90;;;;;;5056036;28;20036;-67
2024/03/23 03:12:38;;;;;;;3.88;1.40;;;4.10;99.90;;;;;;5057385;28;20476;-66
2024/03/23 03:15:07;;;;;;;2.42;1.17;;;4.10;99.90;;;;;;5064745;28;20040;-66
2024/03/23 03:17:33;;;;;;;2.58;0.95;;;4.00;99.90;;;;;;5065901;28;20054;-67
2024/03/23 03:19:59;;;;;;;7.82;0.98;;;4.10;99.90;;;;;;5065212;28;20446;-66
2024/03/23 03:22:25;;;;;;;5.85;1.58;;;4.10;99.90;;;;;;5064739;28;20135;-66
2024/03/23 03:24:50;;;;;;;2.67;1.38;;;4.10;99.90;;;;;;5062600;28;20154;-68
2024/03/23 03:27:16;;;;;;;2.55;1.15;;;4.00;99.90;;;;;;5062882;28;20345;-66
2024/03/23 03:29:41;;;;;;;3.50;1.10;;;4.00;99.90;;;;;;5064146;28;20117;-66
2024/03/23 03:32:07;;;;;;;2.85;1.55;;;4.00;99.90;;;;;;5051752;28;20460;-66
2024/03/23 03:34:33;;;;;;;3.03;1.10;;;4.00;99.90;;;;;;5062680;28;20028;-66
2024/03/23 03:36:59;;;;;;;4.00;1.50;;;4.00;99.90;;;;;;5065017;28;20110;-66
2024/03/23 03:39:24;;;;;;;1.75;1.02;;;4.00;99.90;;;;;;5060874;28;20028;-66
2024/03/23 03:41:50;;;;;;;3.53;1.33;;;3.90;99.90;;;;;;5058430;28;20028;-66
2024/03/23 03:44:16;;;;;;;6.40;1.35;;;3.90;99.90;;;;;;5066073;28;20048;-66
2024/03/23 03:46:42;;;;;;;1.70;0.80;;;3.90;99.90;;;;;;5062169;28;20385;-66
2024/03/23 03:49:07;;;;;;;3.60;1.38;;;3.90;99.90;;;;;;5062896;28;20106;-66
2024/03/23 03:51:33;;;;;;;1.25;0.80;;;3.90;99.90;;;;;;5066380;28;20108;-66
2024/03/23 03:53:58;;;;;;;6.68;1.17;;;3.90;99.90;;;;;;5060934;28;21527;-66
2024/03/23 03:56:24;;;;;;;0.80;0.80;;;3.90;99.90;;;;;;5064755;28;20052;-66
2024/03/23 03:58:49;;;;;;;4.53;1.33;;;3.90;99.90;;;;;;5062600;28;20092;-66
2024/03/23 04:01:15;;;;;;;5.15;1.52;;;3.90;99.90;;;;;;5063376;28;20104;-66
2024/03/23 04:03:43;;;;;;;3.55;1.65;;;3.90;99.90;;;;;;5063515;28;20123;-66
2024/03/23 04:06:09;;;;;;;4.40;1.15;;;3.90;99.90;;;;;;5064999;28;20020;-66
2024/03/23 04:08:35;;;;;;;3.65;1.35;;;3.90;99.90;;;;;;5060319;28;20059;-66
2024/03/23 04:11:00;;;;;;;6.05;1.45;;;3.90;99.90;;;;;;5060511;28;20037;-66
2024/03/23 04:13:25;;;;;;;2.03;1.10;;;3.90;99.90;;;;;;5063899;28;20394;-67
2024/03/23 04:15:55;;;;;;;3.08;1.25;;;3.90;99.90;;;;;;5058316;28;20028;-67
2024/03/23 04:18:21;;;;;;;5.45;1.10;;;3.90;99.90;;;;;;5071059;28;20113;-66
2024/03/23 04:20:47;;;;;;;3.67;1.40;;;3.80;99.90;;;;;;5055573;28;20033;-65
2024/03/23 04:23:12;;;;;;;2.20;0.93;;;3.80;99.90;;;;;;5062129;28;20085;-65
2024/03/23 04:25:38;;;;;;;2.17;0.90;;;3.80;99.90;;;;;;5060703;28;20100;-68
2024/03/23 04:28:04;;;;;;;9.40;1.58;;;3.80;99.90;;;;;;5061812;28;20029;-68
2024/03/23 04:30:30;;;;;;;3.75;1.33;;;3.80;99.90;;;;;;5062403;28;20039;-65
2024/03/23 04:32:56;;;;;;;1.75;1.00;;;3.80;99.90;;;;;;5058068;28;20024;-65
2024/03/23 04:35:25;;;;;;;1.98;0.73;;;3.90;99.90;;;;;;5061961;28;20029;-65
2024/03/23 04:37:52;;;;;;;3.45;1.17;;;3.80;99.90;;;;;;5064999;28;20411;-68
2024/03/23 04:40:17;;;;;;;4.07;0.90;;;3.90;99.90;;;;;;5055471;28;20064;-67
2024/03/23 04:42:43;;;;;;;3.97;1.63;;;3.90;99.90;;;;;;5059042;28;20059;-67
2024/03/23 04:45:10;;;;;;;1.30;1.10;;;3.90;99.90;;;;;;5062067;28;20033;-67
2024/03/23 04:47:36;;;;;;;7.65;1.30;;;3.80;99.90;;;;;;5058373;28;20079;-67
2024/03/23 04:50:03;;;;;;;5.97;1.30;;;3.80;99.90;;;;;;5062087;28;20040;-67
2024/03/23 04:52:29;;;;;;;7.72;1.90;;;3.80;99.90;;;;;;5061208;28;20035;-67
2024/03/23 04:54:54;;;;;;;5.35;1.30;;;3.80;99.90;;;;;;5061120;28;20476;-67
2024/03/23 04:57:20;;;;;;;4.40;1.38;;;3.80;99.90;;;;;;5063509;28;20369;-67
2024/03/23 04:59:45;;;;;;;5.43;1.40;;;3.80;99.90;;;;;;5063605;28;20035;-67
2024/03/23 05:02:11;;;;;;;5.28;1.20;;;3.80;99.90;;;;;;5062326;28;20024;-67
2024/03/23 05:04:37;;;;;;;5.25;1.30;;;3.80;99.90;;;;;;5056809;28;20548;-67
2024/03/23 05:07:02;;;;;;;2.88;1.48;;;3.80;99.90;;;;;;5063028;28;20090;-67
2024/03/23 05:09:29;;;;;;;3.33;1.52;;;3.80;99.90;;;;;;5060392;28;20028;-67
2024/03/23 05:11:56;;;;;;;3.67;1.70;;;3.80;99.90;;;;;;5058476;28;20482;-67
2024/03/23 05:14:22;;;;;;;1.73;1.10;;;3.70;99.90;;;;;;5064419;28;20104;-67
2024/03/23 05:16:48;;;;;;;2.78;1.40;;;3.80;99.90;;;;;;5066238;28;20193;-67
2024/03/23 05:19:13;;;;;;;5.43;1.75;;;3.70;99.90;;;;;;5064605;28;20086;-67
2024/03/23 05:21:39;;;;;;;8.82;1.60;;;3.80;99.90;;;;;;5064935;28;20122;-67
2024/03/23 05:24:05;;;;;;;4.93;1.75;;;3.80;99.90;;;;;;5063191;28;20346;-67
2024/03/23 05:26:30;;;;;;;2.25;1.30;;;3.80;99.90;;;;;;5062461;28;21164;-67
2024/03/23 05:28:56;;;;;;;4.53;1.58;;;3.80;99.90;;;;;;5065600;28;20039;-66
2024/03/23 05:31:29;;;;;;;6.13;1.50;;;3.80;99.90;;;;;;5065974;28;20037;-66
2024/03/23 05:33:55;;;;;;;2.15;1.50;;;3.80;99.90;;;;;;5059497;28;20392;-65
2024/03/23 05:36:21;;;;;;;3.13;1.25;;;3.80;99.90;;;;;;5062923;28;20025;-65
2024/03/23 05:38:47;;;;;;;4.07;1.25;;;3.80;99.90;;;;;;5062893;28;20485;-67
2024/03/23 05:41:12;;;;;;;4.35;1.42;;;3.80;99.90;;;;;;5066013;28;20101;-66
2024/03/23 05:43:38;;;;;;;6.30;1.60;;;3.80;99.90;;;;;;5067169;28;20098;-65
2024/03/23 05:46:05;;;;;;;3.08;1.33;;;3.80;99.90;;;;;;5067995;28;20128;-65
2024/03/23 05:48:31;;;;;;;2.10;1.25;;;3.80;99.90;;;;;;5064072;28;20641;-66
2024/03/23 05:50:57;;;;;;;4.70;1.85;;;3.90;99.90;;;;;;5066570;28;20036;-66
2024/03/23 05:53:23;;;;;;;4.60;2.15;;;3.90;99.90;;;;;;5064402;28;20485;-66
2024/03/23 05:55:48;;;;;;;3.92;1.60;;;3.90;99.90;;;;;;5060296;28;20040;-66
2024/03/23 05:58:18;;;;;;;4.30;1.58;;;3.90;99.90;;;;;;5066460;28;20131;-66
2024/03/23 06:00:44;;;;;;;3.60;1.70;;;3.90;99.90;;;;;;5066005;28;20051;-65
2024/03/23 06:03:10;;;;;;;3.67;1.75;;;4.00;99.90;;;;;;5065825;28;20024;-67
2024/03/23 06:05:36;;;;;;;7.97;1.85;;;4.00;99.90;;;;;;5062337;28;20028;-66
2024/03/23 06:08:02;;;;;;;4.90;1.50;;;4.00;99.90;;;;;;5062372;28;20060;-67
2024/03/23 06:10:28;;;;;;;7.35;1.90;;;4.00;99.90;;;;;;5063595;28;20364;-68
2024/03/23 06:12:53;;;;;;;4.50;1.75;;;4.00;99.90;;;;;;5066209;28;20111;-67
2024/03/23 06:15:19;;;;;;;3.95;1.60;;;4.00;99.90;;;;;;5061884;28;20032;-66
2024/03/23 06:17:45;;;;;;;5.15;1.83;;;4.00;99.90;;;;;;5062741;28;20119;-67
2024/03/23 06:20:10;;;;;;;4.60;1.60;;;4.00;99.90;;;;;;5066529;28;20040;-66
2024/03/23 06:22:36;;;;;;;4.32;2.08;;;4.10;99.90;;;;;;5064741;28;20060;-66
2024/03/23 06:25:02;;;;;;;5.95;2.08;;;4.10;99.90;;;;;;5059206;28;20480;-67
2024/03/23 06:27:28;;;;;;;3.70;1.60;;;4.10;99.90;;;;;;5064449;28;20111;-66
2024/03/23 06:29:53;;;;;;;2.35;1.52;;;4.10;99.90;;;;;;5065532;28;20072;-66
2024/03/23 06:32:19;;;;;;;5.00;2.08;;;4.20;99.90;;;;;;5067260;28;20107;-65
2024/03/23 06:34:45;;;;;;;4.32;1.63;;;4.20;99.90;;;;;;5065248;28;20037;-66
2024/03/23 06:37:11;;;;;;;4.95;2.13;;;4.20;99.90;;;;;;5064457;28;20037;-65
2024/03/23 06:39:37;;;;;;;6.20;2.47;;;4.20;99.90;;;;;;5058079;28;20051;-65
2024/03/23 06:42:03;;;;;;;4.68;2.00;;;4.20;99.90;;;;;;5061648;28;20044;-64
2024/03/23 06:44:29;;;;;;;3.80;1.63;;;4.20;99.90;;;;;;5063964;28;20041;-64
2024/03/23 06:46:55;;;;;;;6.55;1.50;;;4.20;99.90;;;;;;5059850;28;20103;-65
2024/03/23 06:49:20;;;;;;;3.67;1.77;;;4.20;99.90;;;;;;5064766;28;20087;-64
2024/03/23 06:51:46;;;;;;;4.05;1.50;;;4.20;99.90;;;;;;5066809;28;20067;-65
2024/03/23 06:54:12;;;;;;;3.00;1.33;;;4.20;99.90;;;;;;5063017;28;20059;-65
2024/03/23 06:56:37;;;;;;;8.38;2.00;;;4.30;99.90;;;;;;5065870;28;20436;-65
2024/03/23 06:59:03;;;;;;;3.83;1.70;;;4.40;99.90;;;;;;5058326;28;20131;-65
2024/03/23 07:01:28;;;;;;;3.85;1.83;;;4.50;99.90;;;;;;5062412;28;20036;-65
2024/03/23 07:03:54;;;;;;;4.75;1.92;;;4.50;99.90;;;;;;5060631;28;20189;-65
2024/03/23 07:06:20;;;;;;;4.13;1.88;;;4.60;99.90;;;;;;5067794;28;20028;-65
2024/03/23 07:08:45;;;;;;;3.97;1.77;;;4.60;99.90;;;;;;5063565;28;20499;-67
2024/03/23 07:11:11;;;;;;;3.67;1.58;;;4.70;99.90;;;;;;5065283;28;20115;-66
2024/03/23 07:13:36;;;;;;;3.55;1.67;;;4.90;99.90;;;;;;5067716;28;20249;-65
2024/03/23 07:16:02;;;;;;;5.90;2.22;;;4.90;99.80;;;;;;5062443;28;20330;-65
2024/03/23 07:18:27;;;;;;;5.05;2.20;;;4.90;99.30;;;;;;5066160;28;20100;-63
2024/03/23 07:20:57;;;;;;;5.80;2.30;;;4.90;99.50;;;;;;5064810;28;20040;-64
2024/03/23 07:23:24;;;;;;;4.55;1.80;;;4.90;99.00;;;;;;5062019;28;20066;-64
2024/03/23 07:25:59;;;;;;;6.15;1.40;;;4.90;99.10;;;;;;5059903;28;20383;-65
2024/03/23 07:28:25;;;;;;;4.10;1.60;;;5.00;98.80;;;;;;5059241;28;20033;-64
2024/03/23 07:31:10;;;;;;;4.07;2.03;;;5.10;98.80;;;;;;5066558;28;20083;-64
2024/03/23 07:33:48;;;;;;;4.60;1.80;;;5.10;98.40;;;;;;5065623;28;20087;-64
2024/03/23 07:36:14;;;;;;;5.18;1.95;;;5.30;98.20;;;;;;5063025;28;20067;-66
2024/03/23 07:38:45;;;;;;;3.78;1.40;;;5.30;97.70;;;;;;5062331;28;20065;-67
2024/03/23 07:41:14;;;;;;;3.20;1.67;;;5.40;97.60;;;;;;5064791;28;20101;-66
2024/03/23 07:43:40;;;;;;;4.32;1.48;;;5.60;97.70;;;;;;5065891;28;20307;-67
2024/03/23 07:46:06;;;;;;;5.10;1.58;;;5.80;97.90;;;;;;5067729;28;20040;-68
2024/03/23 07:48:32;;;;;;;3.50;1.30;;;5.90;97.20;;;;;;5066799;28;20067;-67
2024/03/23 07:51:01;;;;;;;4.60;1.90;;;5.90;96.30;;;;;;5064687;28;20028;-67
2024/03/23 07:53:28;;;;;;;4.85;1.83;;;6.00;96.20;;;;;;5063104;28;20121;-67
2024/03/23 07:56:07;;;;;;;7.90;1.77;;;6.10;96.10;;;;;;5063018;28;20073;-68
2024/03/23 07:58:33;;;;;;;3.53;1.50;;;6.20;94.80;;;;;;5065418;28;20116;-68
2024/03/23 08:01:13;;;;;;;2.55;1.52;;;6.20;95.10;;;;;;5065443;28;20408;-67
2024/03/23 08:03:40;;;;;;;2.17;1.30;;;6.30;94.80;;;;;;5063492;28;20029;-67
2024/03/23 08:06:12;;;;;;;2.25;1.48;;;6.40;94.20;;;;;;5060777;28;20025;-67
2024/03/23 08:08:38;;;;;;;3.50;1.67;;;6.50;93.40;;;;;;5061559;28;20171;-67
2024/03/23 08:11:04;;;;;;;6.00;1.77;;;6.60;93.10;;;;;;5058884;28;20036;-67
2024/03/23 08:13:30;;;;;;;6.88;1.92;;;6.80;93.50;;;;;;5063289;28;20119;-67
2024/03/23 08:16:04;;;;;;;5.88;1.75;;;6.90;92.40;;;;;;5059964;28;20037;-68
2024/03/23 08:18:30;;;;;;;5.38;2.17;;;7.00;92.40;;;;;;5056123;28;20430;-67
2024/03/23 08:21:02;;;;;;;3.30;1.30;;;7.10;92.10;;;;;;5064896;28;20044;-68
2024/03/23 08:23:29;;;;;;;6.72;1.33;;;7.10;91.30;;;;;;5062133;28;20066;-66
2024/03/23 08:25:58;;;;;;;3.17;1.27;;;7.10;91.00;;;;;;5062291;28;20032;-66
2024/03/23 08:28:24;;;;;;;2.80;1.05;;;7.30;90.80;;;;;;5063610;28;20278;-67
2024/03/23 08:30:50;;;;;;;3.00;1.77;;;7.20;90.10;;;;;;5063262;28;20098;-67
2024/03/23 08:33:16;;;;;;;3.85;0.90;;;7.40;90.10;;;;;;5064295;28;20029;-65
2024/03/23 08:35:42;;;;;;;2.47;1.58;;;7.20;88.90;;;;;;5062049;28;20418;-67
2024/03/23 08:38:07;;;;;;;2.78;1.10;;;7.30;89.00;;;;;;5057402;28;20055;-66
2024/03/23 08:40:33;;;;;;;3.13;1.13;;;7.50;88.70;;;;;;5058796;28;20561;-67
2024/03/23 08:42:58;;;;;;;4.53;1.33;;;7.60;87.80;;;;;;5065052;28;20049;-68
2024/03/23 08:45:25;;;;;;;3.55;1.50;;;7.70;87.60;;;;;;5065803;28;20044;-66
2024/03/23 08:47:51;;;;;;;6.53;1.90;;;7.80;88.00;;;;;;5063939;28;20079;-67
2024/03/23 08:50:17;;;;;;;8.57;1.88;;;8.10;87.30;;;;;;5059167;28;20036;-68
2024/03/23 08:52:42;;;;;;;3.40;1.27;;;8.30;87.20;;;;;;5061711;28;20047;-68
2024/03/23 08:55:09;;;;;;;4.68;1.60;;;8.20;85.70;;;;;;5059452;28;20682;-67
2024/03/23 08:57:35;;;;;;;2.75;1.20;;;8.20;86.10;;;;;;5064791;28;20020;-67
2024/03/23 09:00:00;;;;;;;1.92;1.13;;;8.40;85.60;;;;;;5061799;28;20081;-68
2024/03/23 09:02:26;;;;;;;6.85;1.15;;;8.60;84.90;;;;;;5067339;28;20033;-65
2024/03/23 09:04:51;;;;;;;5.35;1.48;;;8.80;81.60;;;;;;5063626;28;20056;-66
2024/03/23 09:07:17;;;;;;;4.47;1.50;;;8.70;82.60;;;;;;5065375;28;20082;-66
2024/03/23 09:09:42;;;;;;;5.80;0.98;;;9.00;82.50;;;;;;5065183;28;20047;-67
2024/03/23 09:12:08;;;;;;;5.57;0.98;;;9.30;82.10;;;;;;5066018;28;20119;-67
2024/03/23 09:14:34;;;;;;;4.38;0.77;;;8.60;78.50;;;;;;5069306;28;20036;-66
2024/03/23 09:16:59;;;;;;;3.92;0.98;;;8.80;80.30;;;;;;5070445;28;20161;-66
2024/03/23 09:19:28;;;;;;;2.50;1.08;;;9.20;80.50;;;;;;5062341;28;20171;-66
2024/03/23 09:21:53;;;;;;;2.20;0.75;;;8.90;78.90;;;;;;5066831;28;20300;-66
2024/03/23 09:24:19;;;;;;;4.82;1.50;;;9.30;81.90;;;;;;5062168;28;20437;-66
2024/03/23 09:26:44;;;;;;;2.40;0.77;;;9.60;78.90;;;;;;5065557;28;20020;-66
2024/03/23 09:29:10;;;;;;;4.50;1.48;;;9.80;78.40;;;;;;5065528;28;20056;-66
2024/03/23 09:31:36;;;;;;;3.05;0.90;;;9.00;77.80;;;;;;5066337;28;20061;-66
2024/03/23 09:34:01;;;;;;;2.83;1.00;;;8.50;79.10;;;;;;5066616;28;20148;-66
2024/03/23 09:36:27;;;;;;;5.53;1.05;;;8.30;79.60;;;;;;5064251;28;20358;-66
2024/03/23 09:38:52;;;;;;;2.97;0.93;;;;;;;;;;5062454;28;20108;-68
2024/03/23 09:41:18;;;;;;;2.28;0.65;;;8.20;79.30;;;;;;5062625;28;20016;-66
2024/03/23 09:43:44;;;;;;;5.38;0.90;;;8.30;79.00;;;;;;5066630;28;20108;-66
2024/03/23 09:46:09;;;;;;;1.77;0.93;;;8.50;78.60;;;;;;5067050;28;20388;-65
2024/03/23 09:48:36;;;;;;;1.60;0.70;;;8.30;77.30;;;;;;5069486;28;20163;-66
2024/03/23 09:51:02;;;;;;;2.08;0.75;;;8.20;77.90;;;;;;5060342;28;20029;-67
2024/03/23 09:53:28;;;;;;;5.75;1.10;;;8.10;78.00;;;;;;5067438;28;20135;-66
2024/03/23 09:55:54;;;;;;;3.70;1.00;;;7.90;79.10;;;;;;5060705;28;20058;-66
2024/03/23 09:58:23;;;;;;;3.90;0.90;;;8.00;79.50;;;;;;5066016;28;20529;-66
2024/03/23 10:00:48;;;;;;;1.58;0.35;;;8.50;77.90;;;;;;5062948;28;20101;-66
2024/03/23 10:03:14;;;;;;;2.22;0.60;;;9.10;75.70;;;;;;5063252;28;20460;-67
2024/03/23 10:05:40;;;;;;;3.25;0.70;;;9.40;73.90;;;;;;5067354;28;20105;-66
2024/03/23 10:08:14;;;;;;;5.38;0.95;;;9.70;73.90;;;;;;5064477;28;20532;-67
2024/03/23 10:10:40;;;;;;;1.20;0.60;;;9.60;71.90;;;;;;5065897;28;20032;-66
2024/03/23 10:13:06;;;;;;;2.92;0.73;;;9.90;70.70;;;;;;5062913;28;20037;-66
2024/03/23 10:15:34;;;;;;;4.07;0.93;;;10.10;70.10;;;;;;5065823;28;20116;-67
2024/03/23 10:18:18;;;;;;;1.15;0.40;;;10.30;71.20;;;;;;5066042;28;20190;-66
2024/03/23 10:20:46;;;;;;;1.60;0.93;;;10.00;69.80;;;;;;5063835;28;20128;-67
2024/03/23 10:23:17;;;;;;;1.58;0.52;;;10.10;68.70;;;;;;5062677;28;20124;-66
2024/03/23 10:25:43;;;;;;;4.32;0.65;;;10.40;69.90;;;;;;5063477;28;20485;-66
2024/03/23 10:28:09;;;;;;;6.70;1.17;;;9.90;70.70;;;;;;5066696;28;20124;-66
2024/03/23 10:30:35;;;;;;;2.28;0.60;;;9.30;71.40;;;;;;5062191;28;20047;-66
2024/03/23 10:33:10;;;;;;;2.70;0.45;;;9.10;72.00;;;;;;5066403;28;20539;-66
2024/03/23 10:35:38;;;;;;;3.78;0.85;;;9.00;70.80;;;;;;5059875;28;20048;-67
2024/03/23 10:38:06;;;;;;;1.20;0.60;;;8.90;72.00;;;;;;5063149;28;20102;-66
2024/03/23 10:40:36;;;;;;;1.95;0.40;;;8.60;72.20;;;;;;5064596;28;20090;-66
2024/03/23 10:43:08;;;;;;;1.23;0.70;;;8.50;73.60;;;;;;5066149;28;20040;-66
2024/03/23 10:45:33;;;;;;;1.92;0.90;;;8.30;75.40;;;;;;5066289;28;20380;-65
2024/03/23 10:47:59;;;;;;;2.05;0.73;;;8.00;73.60;;;;;;5064826;28;20042;-66
2024/03/23 10:50:24;;;;;;;1.55;0.63;;;8.10;74.70;;;;;;5059944;28;20085;-66
2024/03/23 10:52:53;;;;;;;3.10;1.08;;;8.00;76.50;;;;;;5064055;28;20162;-67
2024/03/23 10:55:20;;;;;;;1.38;0.55;;;7.80;76.90;;;;;;5065813;28;20031;-66
2024/03/23 10:57:51;;;;;;;2.10;0.80;;;8.40;75.30;;;;;;5049484;28;20052;-66
2024/03/23 11:00:17;;;;;;;2.67;0.80;;;9.20;75.60;;;;;;5055567;28;22201;-66
2024/03/23 11:02:42;;;;;;;1.35;0.70;;;9.50;74.40;;;;;;5065077;28;20032;-68
2024/03/23 11:05:26;;;;;;;2.90;0.60;;;9.80;73.60;;;;;;5064774;28;20534;-64
2024/03/23 11:07:53;;;;;;;2.30;0.50;;;9.90;71.00;;;;;;5061102;28;20149;-65
2024/03/23 11:10:30;;;;;;;3.45;0.47;;;9.50;70.00;;;;;;5061087;28;20025;-65
2024/03/23 11:13:18;;;;;;;3.72;0.68;;;9.40;71.30;;;;;;5064501;28;20021;-65
2024/03/23 11:15:44;;;;;;;1.02;0.57;;;9.10;71.10;;;;;;5064449;28;20142;-65
2024/03/23 11:18:09;;;;;;;3.67;0.65;;;8.90;71.30;;;;;;5062100;28;20111;-64
2024/03/23 11:20:35;;;;;;;2.00;0.50;;;8.80;73.20;;;;;;5060334;28;20473;-66
2024/03/23 11:23:01;;;;;;;1.02;0.63;;;9.50;70.50;;;;;;5063758;28;20032;-66
2024/03/23 11:25:28;;;;;;;2.38;0.60;;;9.50;70.40;;;;;;5064044;28;20056;-66
2024/03/23 11:27:56;;;;;;;2.72;0.82;;;9.00;71.80;;;;;;5057356;28;20118;-64
2024/03/23 11:30:23;;;;;;;1.92;0.75;;;8.60;69.90;;;;;;5062558;28;20452;-65
2024/03/23 11:32:51;;;;;;;2.97;0.60;;;9.00;69.00;;;;;;5065238;28;20072;-64
2024/03/23 11:35:40;;;;;;;1.25;0.40;;;9.30;70.20;;;;;;5063700;28;20024;-65
2024/03/23 11:38:13;;;;;;;3.95;0.75;;;9.10;71.10;;;;;;5062341;28;20115;-65
2024/03/23 11:40:43;;;;;;;6.30;1.00;;;8.70;72.70;;;;;;5060826;28;20131;-66
2024/03/23 11:43:13;;;;;;;1.55;0.57;;;8.90;72.00;;;;;;5065101;28;20118;-64
2024/03/23 11:45:41;;;;;;;1.75;0.60;;;9.80;70.90;;;;;;5064114;28;20035;-64
2024/03/23 11:48:11;;;;;;;0.68;0.30;;;10.10;67.70;;;;;;5065055;28;20036;-66
2024/03/23 11:50:40;;;;;;;1.40;0.47;;;9.70;65.20;;;;;;5065249;28;20625;-67
2024/03/23 11:53:17;;;;;;;3.38;0.50;;;10.00;64.60;;;;;;5061687;28;20115;-65
2024/03/23 11:55:55;;;;;;;2.17;0.40;;;10.30;67.20;;;;;;5059784;28;20028;-66
2024/03/23 11:58:23;;;;;;;2.05;0.60;;;9.60;65.10;;;;;;5061017;28;20098;-66
2024/03/23 12:00:55;;;;;;;0.80;0.70;;;9.60;68.10;;;;;;5061193;28;20115;-66
2024/03/23 12:03:25;;;;;;;1.75;0.65;;;9.70;66.90;;;;;;5063986;28;20037;-66
2024/03/23 12:05:53;;;;;;;1.10;0.55;;;9.70;67.30;;;;;;5063575;28;20120;-65
2024/03/23 12:08:29;;;;;;;1.30;0.85;;;9.80;67.80;;;;;;5056684;28;20037;-65
2024/03/23 12:11:12;;;;;;;1.33;0.70;;;9.00;69.90;;;;;;5058979;28;20024;-66
2024/03/23 12:13:38;;;;;;;1.83;0.93;;;8.60;71.70;;;;;;5065463;28;20143;-66
2024/03/23 12:16:18;;;;;;;0.75;0.57;;;8.10;76.10;;;;;;5065047;28;20625;-65
2024/03/23 12:18:45;;;;;;;0.40;0.40;;;7.80;76.30;;;;;;5065720;28;20043;-65
2024/03/23 12:21:11;;;;;;;1.08;0.52;;;7.80;75.10;;;;;;5063618;28;20372;-65
2024/03/23 12:23:39;;;;;;;1.85;0.80;;;7.70;75.80;;;;;;5060175;28;20115;-66
2024/03/23 12:26:04;;;;;;;2.60;0.98;;;6.80;82.10;;;;;;5060060;28;20024;-65
2024/03/23 12:28:30;;;;;;;2.38;0.70;;;6.00;87.30;;;;;;5060768;28;20491;-66
2024/03/23 12:30:55;;;;;;;1.02;0.82;;;6.50;89.10;;;;;;5065208;28;20443;-65
2024/03/23 12:33:21;;;;;;;1.15;0.98;;;7.10;89.70;;;;;;5065467;28;20136;-66
2024/03/23 12:35:50;;;;;;;1.40;1.05;;;6.90;89.50;;;;;;5065267;28;20049;-66
2024/03/23 12:38:17;;;;;;;1.73;1.40;;;6.60;87.00;;;;;;5060547;28;20157;-65
2024/03/23 12:40:47;;;;;;;0.30;0.30;;;6.00;85.00;;;;;;5059621;28;20071;-66
2024/03/23 12:43:12;;;;;;;1.70;0.43;;;5.40;85.00;;;;;;5065423;28;20025;-66
2024/03/23 12:45:38;;;;;;;0.70;0.60;;;5.30;86.70;;;;;;5065126;28;20035;-66
2024/03/23 12:48:03;;;;;;;0.47;0.30;;;5.40;85.50;;;;;;5061221;28;20051;-65
2024/03/23 12:50:29;;;;;;;0.90;0.35;;;5.50;85.30;;;;;;5058547;28;20429;-65
2024/03/23 12:52:54;;;;;;;0.25;0.20;;;5.60;84.70;;;;;;5061935;28;20099;-66
2024/03/23 12:55:20;;;;;;;0.77;0.43;;;5.80;84.90;;;;;;5064142;28;20085;-66